sensor_id;sensor_type;location;lat;lon;timestamp;pressure;altitude;pressure_sealevel;temperature;humidity
70103;BME280;57470;50.034;15.256;2024-03-23T00:52:53;98621.34;;;12.66;82.69
70103;BME280;57470;50.034;15.256;2024-03-23T00:55:18;98619.94;;;12.71;82.68
70103;BME280;57470;50.034;15.256;2024-03-23T00:57:44;98628.38;;;12.08;84.17
70103;BME280;57470;50.034;15.256;2024-03-23T01:00:09;98648.28;;;12.03;84.13
70103;BME280;57470;50.034;15.256;2024-03-23T01:02:36;98646.59;;;12.43;83.00
70103;BME280;57470;50.034;15.256;2024-03-23T01:05:01;98641.53;;;12.49;82.69
70103;BME280;57470;50.034;15.256;2024-03-23T01:07:27;98637.44;;;12.45;83.65
70103;BME280;57470;50.034;15.256;2024-03-23T01:09:52;98630.25;;;12.26;83.99
70103;BME280;57470;50.034;15.256;2024-03-23T01:12:18;98625.53;;;12.49;83.46
70103;BME280;57470;50.034;15.256;2024-03-23T01:14:43;98621.81;;;12.21;83.54
70103;BME280;57470;50.034;15.256;2024-03-23T01:17:09;98615.28;;;12.54;83.13
70103;BME280;57470;50.034;15.256;2024-03-23T01:19:34;98604.44;;;12.27;83.87
70103;BME280;57470;50.034;15.256;2024-03-23T01:22:00;98608.16;;;12.84;81.95
70103;BME280;57470;50.034;15.256;2024-03-23T01:24:25;98614.06;;;12.87;82.08
70103;BME280;57470;50.034;15.256;2024-03-23T01:26:50;98610.56;;;12.77;82.24
70103;BME280;57470;50.034;15.256;2024-03-23T01:29:16;98608.88;;;12.95;80.87
70103;BME280;57470;50.034;15.256;2024-03-23T01:31:41;98595.63;;;12.46;81.62
70103;BME280;57470;50.034;15.256;2024-03-23T01:34:07;98589.00;;;12.30;82.46
70103;BME280;57470;50.034;15.256;2024-03-23T01:36:32;98588.59;;;12.54;81.46
70103;BME280;57470;50.034;15.256;2024-03-23T01:38:58;98594.31;;;12.21;81.66
70103;BME280;57470;50.034;15.256;2024-03-23T01:41:24;98585.59;;;12.19;81.64
70103;BME280;57470;50.034;15.256;2024-03-23T01:43:50;98587.50;;;12.47;81.99
70103;BME280;57470;50.034;15.256;2024-03-23T01:46:15;98584.72;;;12.68;80.54
70103;BME280;57470;50.034;15.256;2024-03-23T01:48:41;98581.75;;;12.61;80.85
70103;BME280;57470;50.034;15.256;2024-03-23T01:51:07;98574.88;;;12.78;80.85
70103;BME280;57470;50.034;15.256;2024-03-23T01:53:33;98576.41;;;12.81;80.79
70103;BME280;57470;50.034;15.256;2024-03-23T01:55:58;98556.06;;;12.60;81.10
70103;BME280;57470;50.034;15.256;2024-03-23T01:58:23;98545.75;;;12.17;81.69
70103;BME280;57470;50.034;15.256;2024-03-23T02:00:49;98549.56;;;12.53;81.87
70103;BME280;57470;50.034;15.256;2024-03-23T02:03:27;98544.19;;;11.95;82.11
70103;BME280;57470;50.034;15.256;2024-03-23T02:05:56;98548.91;;;12.42;81.63
70103;BME280;57470;50.034;15.256;2024-03-23T02:08:24;98539.59;;;12.36;81.88
70103;BME280;57470;50.034;15.256;2024-03-23T02:10:51;98545.50;;;12.39;81.88
70103;BME280;57470;50.034;15.256;2024-03-23T02:13:21;98541.97;;;12.10;82.75
70103;BME280;57470;50.034;15.256;2024-03-23T02:15:47;98525.59;;;12.24;82.15
70103;BME280;57470;50.034;15.256;2024-03-23T02:18:14;98544.41;;;12.42;81.72
70103;BME280;57470;50.034;15.256;2024-03-23T02:20:42;98532.25;;;11.99;82.47
70103;BME280;57470;50.034;15.256;2024-03-23T02:23:15;98535.41;;;12.24;82.33
70103;BME280;57470;50.034;15.256;2024-03-23T02:25:44;98525.59;;;12.34;82.54
70103;BME280;57470;50.034;15.256;2024-03-23T02:28:11;98521.50;;;12.39;82.20
70103;BME280;57470;50.034;15.256;2024-03-23T02:30:39;98528.69;;;12.68;81.18
70103;BME280;57470;50.034;15.256;2024-03-23T02:33:05;98527.56;;;12.70;81.28
70103;BME280;57470;50.034;15.256;2024-03-23T02:35:33;98528.50;;;12.89;80.40
70103;BME280;57470;50.034;15.256;2024-03-23T02:38:00;98511.84;;;12.58;81.69
70103;BME280;57470;50.034;15.256;2024-03-23T02:40:28;98509.56;;;12.72;80.71
70103;BME280;57470;50.034;15.256;2024-03-23T02:42:55;98502.72;;;12.60;81.38
70103;BME280;57470;50.034;15.256;2024-03-23T02:45:22;98497.22;;;12.62;81.57
70103;BME280;57470;50.034;15.256;2024-03-23T02:47:49;98498.75;;;12.45;82.16
70103;BME280;57470;50.034;15.256;2024-03-23T02:50:19;98492.44;;;12.36;81.86
70103;BME280;57470;50.034;15.256;2024-03-23T02:52:47;98491.47;;;12.47;80.93
70103;BME280;57470;50.034;15.256;2024-03-23T02:55:15;98494.41;;;12.54;81.13
70103;BME280;57470;50.034;15.256;2024-03-23T02:57:42;98493.44;;;12.55;81.41
70103;BME280;57470;50.034;15.256;2024-03-23T03:00:09;98483.59;;;12.55;81.32
70103;BME280;57470;50.034;15.256;2024-03-23T03:02:36;98481.94;;;12.06;81.81
70103;BME280;57470;50.034;15.256;2024-03-23T03:05:04;98479.81;;;12.29;81.37
70103;BME280;57470;50.034;15.256;2024-03-23T03:07:32;98478.97;;;12.09;81.88
70103;BME280;57470;50.034;15.256;2024-03-23T03:09:59;98461.66;;;11.75;82.28
70103;BME280;57470;50.034;15.256;2024-03-23T03:12:26;98468.34;;;11.29;83.60
70103;BME280;57470;50.034;15.256;2024-03-23T03:14:52;98460.03;;;11.43;83.95
70103;BME280;57470;50.034;15.256;2024-03-23T03:17:17;98464.19;;;11.76;82.78
70103;BME280;57470;50.034;15.256;2024-03-23T03:19:44;98451.28;;;11.81;82.77
70103;BME280;57470;50.034;15.256;2024-03-23T03:22:10;98453.19;;;11.60;83.31
70103;BME280;57470;50.034;15.256;2024-03-23T03:24:35;98456.22;;;11.86;82.27
70103;BME280;57470;50.034;15.256;2024-03-23T03:27:01;98447.66;;;11.82;82.49
70103;BME280;57470;50.034;15.256;2024-03-23T03:29:28;98444.38;;;11.59;82.66
70103;BME280;57470;50.034;15.256;2024-03-23T03:32:00;98433.97;;;11.56;82.48
70103;BME280;57470;50.034;15.256;2024-03-23T03:34:25;98440.25;;;11.86;81.74
70103;BME280;57470;50.034;15.256;2024-03-23T03:36:50;98440.88;;;11.69;81.92
70103;BME280;57470;50.034;15.256;2024-03-23T03:39:16;98439.06;;;11.69;82.17
70103;BME280;57470;50.034;15.256;2024-03-23T03:41:41;98438.53;;;11.75;81.72
70103;BME280;57470;50.034;15.256;2024-03-23T03:44:07;98445.56;;;11.76;81.95
70103;BME280;57470;50.034;15.256;2024-03-23T03:46:32;98441.84;;;11.58;81.77
70103;BME280;57470;50.034;15.256;2024-03-23T03:48:57;98440.97;;;11.48;82.39
70103;BME280;57470;50.034;15.256;2024-03-23T03:51:23;98430.59;;;11.45;82.01
70103;BME280;57470;50.034;15.256;2024-03-23T03:53:48;98424.66;;;11.32;82.00
70103;BME280;57470;50.034;15.256;2024-03-23T03:56:13;98422.13;;;11.30;82.21
70103;BME280;57470;50.034;15.256;2024-03-23T03:58:39;98429.91;;;11.12;82.24
70103;BME280;57470;50.034;15.256;2024-03-23T04:01:05;98422.81;;;11.22;82.23
70103;BME280;57470;50.034;15.256;2024-03-23T04:03:30;98421.00;;;11.23;81.95
70103;BME280;57470;50.034;15.256;2024-03-23T04:05:56;98415.19;;;10.78;83.85
70103;BME280;57470;50.034;15.256;2024-03-23T04:08:21;98412.72;;;10.65;83.68
70103;BME280;57470;50.034;15.256;2024-03-23T04:10:47;98412.41;;;10.79;83.22
70103;BME280;57470;50.034;15.256;2024-03-23T04:13:13;98410.47;;;10.61;83.37
70103;BME280;57470;50.034;15.256;2024-03-23T04:15:38;98401.34;;;10.53;84.09
70103;BME280;57470;50.034;15.256;2024-03-23T04:18:04;98393.19;;;10.25;84.24
70103;BME280;57470;50.034;15.256;2024-03-23T04:20:30;98392.03;;;10.18;84.38
70103;BME280;57470;50.034;15.256;2024-03-23T04:22:55;98395.91;;;10.02;85.25
70103;BME280;57470;50.034;15.256;2024-03-23T04:25:20;98389.69;;;9.92;85.43
70103;BME280;57470;50.034;15.256;2024-03-23T04:27:46;98383.47;;;10.03;84.34
70103;BME280;57470;50.034;15.256;2024-03-23T04:30:12;98380.13;;;10.01;84.09
70103;BME280;57470;50.034;15.256;2024-03-23T04:32:37;98384.19;;;10.05;84.31
70103;BME280;57470;50.034;15.256;2024-03-23T04:35:03;98387.13;;;10.02;83.75
70103;BME280;57470;50.034;15.256;2024-03-23T04:37:35;98377.00;;;9.96;83.79
70103;BME280;57470;50.034;15.256;2024-03-23T04:40:01;98378.09;;;10.14;83.79
70103;BME280;57470;50.034;15.256;2024-03-23T04:42:27;98376.94;;;10.07;84.35
70103;BME280;57470;50.034;15.256;2024-03-23T04:44:53;98367.69;;;10.01;84.80
70103;BME280;57470;50.034;15.256;2024-03-23T04:47:18;98370.91;;;10.05;84.74
70103;BME280;57470;50.034;15.256;2024-03-23T04:49:43;98364.50;;;10.07;84.84
70103;BME280;57470;50.034;15.256;2024-03-23T04:52:09;98368.56;;;10.11;84.48
70103;BME280;57470;50.034;15.256;2024-03-23T04:54:34;98366.06;;;10.10;84.53
70103;BME280;57470;50.034;15.256;2024-03-23T04:56:59;98369.34;;;10.02;85.06
70103;BME280;57470;50.034;15.256;2024-03-23T04:59:25;98368.44;;;10.13;85.22
70103;BME280;57470;50.034;15.256;2024-03-23T05:01:50;98355.78;;;9.85;87.56
70103;BME280;57470;50.034;15.256;2024-03-23T05:04:16;98359.50;;;9.93;87.85
70103;BME280;57470;50.034;15.256;2024-03-23T05:06:41;98356.28;;;10.31;86.41
70103;BME280;57470;50.034;15.256;2024-03-23T05:09:06;98345.88;;;10.19;87.62
70103;BME280;57470;50.034;15.256;2024-03-23T05:11:33;98327.69;;;10.44;86.40
70103;BME280;57470;50.034;15.256;2024-03-23T05:13:59;98322.81;;;10.19;87.36
70103;BME280;57470;50.034;15.256;2024-03-23T05:16:26;98307.34;;;10.13;87.74
70103;BME280;57470;50.034;15.256;2024-03-23T05:18:52;98303.47;;;10.38;86.86
70103;BME280;57470;50.034;15.256;2024-03-23T05:21:17;98303.88;;;10.64;85.76
70103;BME280;57470;50.034;15.256;2024-03-23T05:23:43;98297.84;;;10.62;86.08
70103;BME280;57470;50.034;15.256;2024-03-23T05:26:08;98298.72;;;10.72;85.64
70103;BME280;57470;50.034;15.256;2024-03-23T05:28:34;98293.06;;;10.56;85.52
70103;BME280;57470;50.034;15.256;2024-03-23T05:31:00;98296.19;;;10.70;85.84
70103;BME280;57470;50.034;15.256;2024-03-23T05:33:25;98294.06;;;10.64;86.30
70103;BME280;57470;50.034;15.256;2024-03-23T05:36:01;98298.84;;;10.70;85.93
70103;BME280;57470;50.034;15.256;2024-03-23T05:38:27;98297.91;;;10.81;85.82
70103;BME280;57470;50.034;15.256;2024-03-23T05:40:57;98313.56;;;10.84;86.14
70103;BME280;57470;50.034;15.256;2024-03-23T05:43:23;98303.28;;;11.10;84.86
70103;BME280;57470;50.034;15.256;2024-03-23T05:45:58;98297.97;;;11.19;84.52
70103;BME280;57470;50.034;15.256;2024-03-23T05:48:25;98291.81;;;11.09;85.08
70103;BME280;57470;50.034;15.256;2024-03-23T05:50:51;98293.13;;;10.84;86.97
70103;BME280;57470;50.034;15.256;2024-03-23T05:53:17;98289.88;;;11.21;86.00
70103;BME280;57470;50.034;15.256;2024-03-23T05:55:43;98299.16;;;11.36;85.01
70103;BME280;57470;50.034;15.256;2024-03-23T05:58:09;98287.34;;;11.39;85.26
70103;BME280;57470;50.034;15.256;2024-03-23T06:00:34;98289.19;;;11.67;84.34
70103;BME280;57470;50.034;15.256;2024-03-23T06:03:00;98274.59;;;11.90;84.18
70103;BME280;57470;50.034;15.256;2024-03-23T06:05:25;98287.34;;;12.16;84.07
70103;BME280;57470;50.034;15.256;2024-03-23T06:07:51;98279.97;;;12.37;83.48
70103;BME280;57470;50.034;15.256;2024-03-23T06:10:16;98279.88;;;12.29;83.39
70103;BME280;57470;50.034;15.256;2024-03-23T06:12:42;98273.84;;;12.17;84.05
70103;BME280;57470;50.034;15.256;2024-03-23T06:15:07;98284.25;;;12.57;83.11
70103;BME280;57470;50.034;15.256;2024-03-23T06:17:36;98272.56;;;13.23;79.87
70103;BME280;57470;50.034;15.256;2024-03-23T06:20:02;98278.59;;;12.97;81.21
70103;BME280;57470;50.034;15.256;2024-03-23T06:22:27;98269.44;;;12.72;81.78
70103;BME280;57470;50.034;15.256;2024-03-23T06:24:52;98257.97;;;12.62;81.75
70103;BME280;57470;50.034;15.256;2024-03-23T06:27:18;98260.16;;;12.76;82.26
70103;BME280;57470;50.034;15.256;2024-03-23T06:29:44;98252.53;;;12.82;82.15
70103;BME280;57470;50.034;15.256;2024-03-23T06:32:09;98241.28;;;12.88;81.61
70103;BME280;57470;50.034;15.256;2024-03-23T06:34:34;98244.94;;;13.14;81.51
70103;BME280;57470;50.034;15.256;2024-03-23T06:37:00;98248.16;;;13.08;82.14
70103;BME280;57470;50.034;15.256;2024-03-23T06:39:25;98239.03;;;13.10;82.20
70103;BME280;57470;50.034;15.256;2024-03-23T06:41:54;98232.28;;;13.06;82.72
70103;BME280;57470;50.034;15.256;2024-03-23T06:44:20;98232.44;;;12.87;82.73
70103;BME280;57470;50.034;15.256;2024-03-23T06:46:46;98228.56;;;12.45;83.70
70103;BME280;57470;50.034;15.256;2024-03-23T06:49:11;98230.91;;;12.85;82.82
70103;BME280;57470;50.034;15.256;2024-03-23T06:51:37;98212.38;;;12.83;82.86
70103;BME280;57470;50.034;15.256;2024-03-23T06:54:05;98214.78;;;13.04;82.69
70103;BME280;57470;50.034;15.256;2024-03-23T06:56:30;98221.84;;;13.23;81.77
70103;BME280;57470;50.034;15.256;2024-03-23T06:58:56;98214.22;;;13.00;82.07
70103;BME280;57470;50.034;15.256;2024-03-23T07:01:22;98205.69;;;12.97;82.90
70103;BME280;57470;50.034;15.256;2024-03-23T07:03:47;98199.69;;;12.40;84.00
70103;BME280;57470;50.034;15.256;2024-03-23T07:06:12;98209.00;;;12.81;83.10
70103;BME280;57470;50.034;15.256;2024-03-23T07:08:38;98202.19;;;12.51;84.94
70103;BME280;57470;50.034;15.256;2024-03-23T07:11:03;98203.50;;;12.65;83.65
70103;BME280;57470;50.034;15.256;2024-03-23T07:13:30;98207.13;;;12.91;83.10
70103;BME280;57470;50.034;15.256;2024-03-23T07:15:56;98204.38;;;13.01;82.43
70103;BME280;57470;50.034;15.256;2024-03-23T07:18:22;98201.69;;;13.28;81.71
70103;BME280;57470;50.034;15.256;2024-03-23T07:20:54;98200.91;;;13.36;81.11
70103;BME280;57470;50.034;15.256;2024-03-23T07:23:22;98201.00;;;13.26;81.96
70103;BME280;57470;50.034;15.256;2024-03-23T07:25:56;98184.94;;;12.91;83.71
70103;BME280;57470;50.034;15.256;2024-03-23T07:28:22;98176.50;;;13.13;81.79
70103;BME280;57470;50.034;15.256;2024-03-23T07:30:47;98169.94;;;13.25;81.72
70103;BME280;57470;50.034;15.256;2024-03-23T07:33:12;98158.78;;;13.12;82.31
70103;BME280;57470;50.034;15.256;2024-03-23T07:35:38;98148.56;;;13.25;82.07
70103;BME280;57470;50.034;15.256;2024-03-23T07:38:03;98152.78;;;13.28;82.43
70103;BME280;57470;50.034;15.256;2024-03-23T07:40:30;98155.00;;;13.32;82.40
70103;BME280;57470;50.034;15.256;2024-03-23T07:42:56;98155.03;;;13.58;83.12
70103;BME280;57470;50.034;15.256;2024-03-23T07:45:21;98147.41;;;13.97;81.46
70103;BME280;57470;50.034;15.256;2024-03-23T07:47:46;98138.34;;;14.24;79.31
70103;BME280;57470;50.034;15.256;2024-03-23T07:50:13;98128.63;;;14.49;79.51
70103;BME280;57470;50.034;15.256;2024-03-23T07:52:38;98119.66;;;14.66;78.70
70103;BME280;57470;50.034;15.256;2024-03-23T07:55:04;98103.34;;;14.43;79.43
70103;BME280;57470;50.034;15.256;2024-03-23T07:57:29;98099.44;;;14.96;78.57
70103;BME280;57470;50.034;15.256;2024-03-23T07:59:55;98090.91;;;15.09;77.55
70103;BME280;57470;50.034;15.256;2024-03-23T08:02:20;98072.84;;;15.11;77.76
70103;BME280;57470;50.034;15.256;2024-03-23T08:04:45;98065.31;;;14.82;77.63
70103;BME280;57470;50.034;15.256;2024-03-23T08:07:11;98058.06;;;15.39;77.79
70103;BME280;57470;50.034;15.256;2024-03-23T08:09:36;98063.59;;;15.46;77.62
70103;BME280;57470;50.034;15.256;2024-03-23T08:12:02;98048.38;;;15.22;78.72
70103;BME280;57470;50.034;15.256;2024-03-23T08:14:27;98045.72;;;15.30;78.40
70103;BME280;57470;50.034;15.256;2024-03-23T08:16:54;98043.47;;;15.50;78.81
70103;BME280;57470;50.034;15.256;2024-03-23T08:19:20;98036.91;;;16.16;77.15
70103;BME280;57470;50.034;15.256;2024-03-23T08:21:45;98031.75;;;17.13;74.29
70103;BME280;57470;50.034;15.256;2024-03-23T08:24:10;98027.19;;;17.14;70.70
70103;BME280;57470;50.034;15.256;2024-03-23T08:26:36;98029.09;;;17.80;70.54
70103;BME280;57470;50.034;15.256;2024-03-23T08:29:03;98015.69;;;17.43;66.53
70103;BME280;57470;50.034;15.256;2024-03-23T08:31:28;98003.88;;;17.29;65.89
70103;BME280;57470;50.034;15.256;2024-03-23T08:33:53;98008.31;;;17.37;65.95
70103;BME280;57470;50.034;15.256;2024-03-23T08:36:19;97996.34;;;17.62;66.99
70103;BME280;57470;50.034;15.256;2024-03-23T08:38:44;97983.16;;;17.67;65.62
70103;BME280;57470;50.034;15.256;2024-03-23T08:41:10;97977.66;;;18.41;64.91
70103;BME280;57470;50.034;15.256;2024-03-23T08:43:38;97967.97;;;18.10;63.63
70103;BME280;57470;50.034;15.256;2024-03-23T08:46:14;97964.69;;;17.93;64.96
70103;BME280;57470;50.034;15.256;2024-03-23T08:48:47;97961.44;;;17.98;65.27
70103;BME280;57470;50.034;15.256;2024-03-23T08:51:16;97963.25;;;18.12;64.59
70103;BME280;57470;50.034;15.256;2024-03-23T08:53:41;97963.47;;;18.32;64.27
70103;BME280;57470;50.034;15.256;2024-03-23T08:56:08;97954.41;;;18.18;66.08
70103;BME280;57470;50.034;15.256;2024-03-23T08:58:35;97957.19;;;18.61;65.47
70103;BME280;57470;50.034;15.256;2024-03-23T09:01:18;97955.84;;;18.99;64.02
70103;BME280;57470;50.034;15.256;2024-03-23T09:03:44;97952.50;;;18.97;64.34
70103;BME280;57470;50.034;15.256;2024-03-23T09:06:14;97955.84;;;18.35;63.20
70103;BME280;57470;50.034;15.256;2024-03-23T09:08:40;97954.13;;;18.49;64.25
70103;BME280;57470;50.034;15.256;2024-03-23T09:11:07;97966.47;;;18.58;63.22
70103;BME280;57470;50.034;15.256;2024-03-23T09:13:36;97957.13;;;18.40;64.00
70103;BME280;57470;50.034;15.256;2024-03-23T09:16:02;97952.09;;;18.51;64.10
70103;BME280;57470;50.034;15.256;2024-03-23T09:18:30;97952.50;;;19.25;62.61
70103;BME280;57470;50.034;15.256;2024-03-23T09:20:56;97942.31;;;18.93;63.13
70103;BME280;57470;50.034;15.256;2024-03-23T09:23:22;97946.41;;;19.44;63.26
70103;BME280;57470;50.034;15.256;2024-03-23T09:25:47;97937.84;;;19.34;62.71
70103;BME280;57470;50.034;15.256;2024-03-23T09:28:12;97933.47;;;19.33;61.47
70103;BME280;57470;50.034;15.256;2024-03-23T09:30:38;97930.50;;;19.50;61.43
70103;BME280;57470;50.034;15.256;2024-03-23T09:33:07;97931.41;;;19.70;61.70
70103;BME280;57470;50.034;15.256;2024-03-23T09:35:39;97931.03;;;19.73;62.25
70103;BME280;57470;50.034;15.256;2024-03-23T09:38:05;97920.25;;;19.38;60.78
70103;BME280;57470;50.034;15.256;2024-03-23T09:40:31;97926.66;;;19.37;62.09
70103;BME280;57470;50.034;15.256;2024-03-23T09:42:56;97903.97;;;19.25;62.02
70103;BME280;57470;50.034;15.256;2024-03-23T09:45:27;97898.94;;;19.16;60.93
70103;BME280;57470;50.034;15.256;2024-03-23T09:47:53;97905.25;;;19.29;61.55
70103;BME280;57470;50.034;15.256;2024-03-23T09:50:18;97907.00;;;19.09;60.83
70103;BME280;57470;50.034;15.256;2024-03-23T09:52:46;97904.22;;;18.96;61.39
70103;BME280;57470;50.034;15.256;2024-03-23T09:55:11;97908.13;;;18.93;59.91
70103;BME280;57470;50.034;15.256;2024-03-23T09:57:37;97906.25;;;18.66;60.54
70103;BME280;57470;50.034;15.256;2024-03-23T10:00:03;97926.69;;;18.39;61.25
70103;BME280;57470;50.034;15.256;2024-03-23T10:02:29;97931.59;;;18.14;61.82
70103;BME280;57470;50.034;15.256;2024-03-23T10:04:55;97963.69;;;17.80;65.41
70103;BME280;57470;50.034;15.256;2024-03-23T10:07:21;98014.66;;;16.38;75.12
70103;BME280;57470;50.034;15.256;2024-03-23T10:09:49;98020.75;;;15.37;82.68
70103;BME280;57470;50.034;15.256;2024-03-23T10:12:19;98036.19;;;15.03;84.96
70103;BME280;57470;50.034;15.256;2024-03-23T10:14:45;98017.59;;;14.53;87.38
70103;BME280;57470;50.034;15.256;2024-03-23T10:17:21;98038.34;;;14.59;87.87
70103;BME280;57470;50.034;15.256;2024-03-23T10:19:52;98033.16;;;14.49;86.35
70103;BME280;57470;50.034;15.256;2024-03-23T10:22:19;98051.06;;;14.57;86.41
70103;BME280;57470;50.034;15.256;2024-03-23T10:24:45;98033.97;;;14.50;86.37
70103;BME280;57470;50.034;15.256;2024-03-23T10:27:16;98024.78;;;14.60;84.95
70103;BME280;57470;50.034;15.256;2024-03-23T10:29:43;98028.00;;;14.72;85.20
70103;BME280;57470;50.034;15.256;2024-03-23T10:32:13;98041.50;;;14.46;84.72
70103;BME280;57470;50.034;15.256;2024-03-23T10:34:39;98036.00;;;14.48;83.90
70103;BME280;57470;50.034;15.256;2024-03-23T10:37:05;98046.03;;;14.54;82.61
70103;BME280;57470;50.034;15.256;2024-03-23T10:39:35;98048.63;;;14.30;81.26
70103;BME280;57470;50.034;15.256;2024-03-23T10:42:09;98062.00;;;14.30;81.72
70103;BME280;57470;50.034;15.256;2024-03-23T10:44:37;98070.50;;;14.33;82.15
70103;BME280;57470;50.034;15.256;2024-03-23T10:47:04;98087.78;;;14.05;80.92
70103;BME280;57470;50.034;15.256;2024-03-23T10:49:33;98101.53;;;13.76;82.37
70103;BME280;57470;50.034;15.256;2024-03-23T10:52:03;98086.75;;;13.64;82.51
70103;BME280;57470;50.034;15.256;2024-03-23T10:54:33;98078.75;;;13.64;81.73
70103;BME280;57470;50.034;15.256;2024-03-23T10:57:13;98094.38;;;13.76;81.20
70103;BME280;57470;50.034;15.256;2024-03-23T10:59:39;98109.78;;;13.90;80.42
70103;BME280;57470;50.034;15.256;2024-03-23T11:02:05;98097.50;;;13.72;80.14
70103;BME280;57470;50.034;15.256;2024-03-23T11:04:37;98115.22;;;13.73;80.40
70103;BME280;57470;50.034;15.256;2024-03-23T11:09:54;98103.03;;;13.52;80.95
70103;BME280;57470;50.034;15.256;2024-03-23T11:15:04;98105.56;;;12.93;82.47
70103;BME280;57470;50.034;15.256;2024-03-23T11:17:30;98086.50;;;13.05;83.04
70103;BME280;57470;50.034;15.256;2024-03-23T11:20:00;98091.06;;;13.13;83.26
70103;BME280;57470;50.034;15.256;2024-03-23T11:25:16;98094.56;;;13.31;80.40
70103;BME280;57470;50.034;15.256;2024-03-23T11:27:45;98093.34;;;13.08;80.34
70103;BME280;57470;50.034;15.256;2024-03-23T11:30:21;98087.84;;;13.09;80.55
70103;BME280;57470;50.034;15.256;2024-03-23T11:32:51;98074.81;;;13.24;79.49
70103;BME280;57470;50.034;15.256;2024-03-23T11:35:25;98070.22;;;13.34;78.78
70103;BME280;57470;50.034;15.256;2024-03-23T11:38:13;98066.38;;;13.63;78.15
70103;BME280;57470;50.034;15.256;2024-03-23T11:40:40;98067.78;;;13.75;78.06
70103;BME280;57470;50.034;15.256;2024-03-23T11:43:12;98076.88;;;13.90;77.11
70103;BME280;57470;50.034;15.256;2024-03-23T11:45:45;98097.75;;;14.20;75.95
70103;BME280;57470;50.034;15.256;2024-03-23T11:48:15;98086.50;;;14.17;76.47
70103;BME280;57470;50.034;15.256;2024-03-23T11:50:44;98086.34;;;14.18;74.39
70103;BME280;57470;50.034;15.256;2024-03-23T11:53:21;98094.44;;;14.35;74.66
70103;BME280;57470;50.034;15.256;2024-03-23T11:55:56;98088.38;;;14.24;74.37
70103;BME280;57470;50.034;15.256;2024-03-23T11:58:23;98080.72;;;14.30;73.63
70103;BME280;57470;50.034;15.256;2024-03-23T12:03:16;98091.06;;;14.67;73.36
70103;BME280;57470;50.034;15.256;2024-03-23T12:05:47;98084.63;;;14.51;72.77
70103;BME280;57470;50.034;15.256;2024-03-23T12:08:20;98089.84;;;14.61;71.83
70103;BME280;57470;50.034;15.256;2024-03-23T12:10:53;98078.28;;;14.44;72.76
70103;BME280;57470;50.034;15.256;2024-03-23T12:13:29;98088.88;;;14.70;71.71
70103;BME280;57470;50.034;15.256;2024-03-23T12:15:54;98088.22;;;14.76;72.47
70103;BME280;57470;50.034;15.256;2024-03-23T12:18:23;98093.53;;;14.60;71.42
70103;BME280;57470;50.034;15.256;2024-03-23T12:20:49;98094.22;;;14.86;71.08
70103;BME280;57470;50.034;15.256;2024-03-23T12:23:15;98097.59;;;14.88;71.42
70103;BME280;57470;50.034;15.256;2024-03-23T12:25:40;98094.44;;;15.09;70.91
70103;BME280;57470;50.034;15.256;2024-03-23T12:28:07;98091.59;;;15.11;70.66
70103;BME280;57470;50.034;15.256;2024-03-23T12:30:38;98093.44;;;14.94;70.68
70103;BME280;57470;50.034;15.256;2024-03-23T12:33:04;98094.06;;;14.80;69.52
70103;BME280;57470;50.034;15.256;2024-03-23T12:35:30;98085.41;;;15.10;69.64
70103;BME280;57470;50.034;15.256;2024-03-23T12:37:55;98094.75;;;15.06;70.25
70103;BME280;57470;50.034;15.256;2024-03-23T12:40:21;98106.44;;;14.73;71.97
70103;BME280;57470;50.034;15.256;2024-03-23T12:42:46;98130.97;;;13.84;76.73
70103;BME280;57470;50.034;15.256;2024-03-23T12:45:12;98147.34;;;13.02;82.06
70103;BME280;57470;50.034;15.256;2024-03-23T12:47:37;98170.91;;;12.44;86.08
70103;BME280;57470;50.034;15.256;2024-03-23T12:50:03;98180.56;;;11.71;91.29
70103;BME280;57470;50.034;15.256;2024-03-23T12:52:28;98190.38;;;11.60;91.36
70103;BME280;57470;50.034;15.256;2024-03-23T12:54:57;98199.38;;;11.31;92.83
70103;BME280;57470;50.034;15.256;2024-03-23T12:57:24;98222.63;;;11.19;93.34
70103;BME280;57470;50.034;15.256;2024-03-23T12:59:53;98222.34;;;11.22;94.17
70103;BME280;57470;50.034;15.256;2024-03-23T13:02:19;98225.13;;;10.91;94.07
70103;BME280;57470;50.034;15.256;2024-03-23T13:04:46;98230.19;;;11.04;94.82
70103;BME280;57470;50.034;15.256;2024-03-23T13:07:12;98236.91;;;10.99;94.23
70103;BME280;57470;50.034;15.256;2024-03-23T13:09:38;98247.53;;;10.89;92.33
70103;BME280;57470;50.034;15.256;2024-03-23T13:12:03;98235.53;;;10.55;89.44
70103;BME280;57470;50.034;15.256;2024-03-23T13:14:29;98250.06;;;10.50;87.78
70103;BME280;57470;50.034;15.256;2024-03-23T13:16:54;98250.44;;;10.36;86.11
70103;BME280;57470;50.034;15.256;2024-03-23T13:19:19;98279.75;;;10.25;85.60
70103;BME280;57470;50.034;15.256;2024-03-23T13:21:45;98278.53;;;10.08;85.05
70103;BME280;57470;50.034;15.256;2024-03-23T13:24:10;98285.25;;;10.33;84.48
70103;BME280;57470;50.034;15.256;2024-03-23T13:26:36;98287.16;;;10.52;86.00
70103;BME280;57470;50.034;15.256;2024-03-23T13:29:02;98288.94;;;10.42;83.33
70103;BME280;57470;50.034;15.256;2024-03-23T13:31:27;98293.75;;;10.58;83.37
70103;BME280;57470;50.034;15.256;2024-03-23T13:33:52;98300.16;;;10.45;81.78
70103;BME280;57470;50.034;15.256;2024-03-23T13:36:18;98294.72;;;10.57;82.63
70103;BME280;57470;50.034;15.256;2024-03-23T13:38:43;98308.13;;;10.45;81.04
70103;BME280;57470;50.034;15.256;2024-03-23T13:41:08;98322.38;;;10.44;80.44
70103;BME280;57470;50.034;15.256;2024-03-23T13:43:37;98337.09;;;10.48;79.29
70103;BME280;57470;50.034;15.256;2024-03-23T13:46:03;98313.06;;;10.29;79.38
70103;BME280;57470;50.034;15.256;2024-03-23T13:48:28;98305.25;;;10.28;80.12
70103;BME280;57470;50.034;15.256;2024-03-23T13:51:01;98338.38;;;10.54;80.07